Floweree, MT

10:24 MDT le 23 mai 2015 (GMT -0600)
Helena Regional | | Change Station
CLOSE
Current Station
Aéroport
Location: Helena,
Altitude: 3865 ft
Stations météo à proximité

Alt. 3865 ft 46.60 °N, 111.99 °W | Updated 31 minutes ago

Couvert
Couvert
54 ° F
Paraît 54 ° F
N
4
Vent Variable Vent de SO

Aujourd'hui
Haut(e) -- | Bas -- ° F
--% Risque de précip.
Hier
Haut(e) -- | Bas -- ° F
Precip. -- pouce
5:38 AM 9:05 PM
Lune montante, 31% visible
Pression 30.05 pouce
Visibilité 10.0 Miles terrestres
Nuages Nuageux 3800 ft
Nuageux 4600 ft
Couvert 6000 ft
Point de rosée 47 ° F
Humidité 77%
Précipitations 0.02 pouce
Profondeur de la couche neigeuse Non disponible.
UV 2 sur 12
Pollen 6.00 sur 12
Qualité de l'air Non disponible.
Flu Activity Sporadic
METAR KHLN 231553Z 23003KT 10SM BKN038 BKN046 OVC060 12/08 A3004 RMK AO2 RAE40 SLP175 P0002 T01220083

More Conditions Fewer Conditions

Pression 30.05 pouce
Visibilité 10.0 Miles terrestres
Nuages Nuageux 3800 ft
Nuageux 4600 ft
Couvert 6000 ft
Point de rosée 47 ° F
Humidité 77%
Précipitations 0.02 pouce
Profondeur de la couche neigeuse Non disponible.
UV 2 sur 12
Pollen 6.00 sur 12
Qualité de l'air Non disponible.
Flu Activity Sporadic
METAR KHLN 231553Z 23003KT 10SM BKN038 BKN046 OVC060 12/08 A3004 RMK AO2 RAE40 SLP175 P0002 T01220083

More Conditions Fewer Conditions

10-Day Weather Forecast

Almanac

Astronomie

May. 23, 2015 Lever Coucher
Temps réel
Crépuscule civil
Crépuscule nautique
Crépuscule astronomique
Lune
Durée de lumière visible
Longueur du jour
Tomorrow will be .
, % of the Moon is Illuminated

Extrêmes aujourd'hui

State Highs State Lows

Community

WunderPhotos

Upload Photos

1,823,512 Photos téléchargées !

WunderBlogs® & News

Nearby

Qualité de l'air

  Qualité de l'air Indice de la qualité de l'air Polluant
Not available.

Épaisseur de neige

Station Depth Altitude

Activité sismique

Ville Distance Mag. Time & Date
Minimum magnitude displayed is 2.5.

Températures des eaux côtières

Lieu Température

Stations

Stations météo à proximité

Emplacement de la station Température Refroidissement éolien Point de rosée Humidité Vent Precip. Alt. Mise à jour Type